Time;durP1;ratioP1;P1;durP2;ratioP2;P2;SDS_P1;SDS_P2;PMS_P1;PMS_P2;Temp;Humidity;BMP_temperature;BMP_pressure;BME280_temperature;BME280_humidity;BME280_pressure;Samples;Min_cycle;Max_cycle;Signal;HPM_P1;HPM_P2
2021/07/04 00:00:19;;;;;;;10.93;8.80;;;;;;;-146.52;100.00;63329.72;997393;29;20335;-78
2021/07/04 00:00:49;;;;;;;11.57;8.75;;;;;;;-146.52;100.00;63329.72;1001127;29;20022;-78
2021/07/04 00:01:20;;;;;;;14.98;8.68;;;;;;;-146.52;100.00;63329.72;997530;29;20093;-78
2021/07/04 00:01:50;;;;;;;12.55;8.63;;;;;;;-146.52;100.00;63329.72;999370;29;20028;-78
2021/07/04 00:02:21;;;;;;;12.80;8.88;;;;;;;-146.52;100.00;63329.72;1001191;29;20084;-78
2021/07/04 00:02:52;;;;;;;10.43;8.43;;;;;;;-146.52;100.00;63329.72;1006061;29;20025;-78
2021/07/04 00:03:23;;;;;;;12.23;8.93;;;;;;;-146.52;100.00;63329.72;1004252;29;20026;-78
2021/07/04 00:03:54;;;;;;;13.93;9.32;;;;;;;-146.52;100.00;63329.72;999668;29;20062;-79
2021/07/04 00:04:24;;;;;;;10.70;8.82;;;;;;;-146.52;100.00;63329.72;1001199;29;20086;-77
2021/07/04 00:04:55;;;;;;;12.75;9.55;;;;;;;-146.52;100.00;63329.72;1010504;29;20538;-77
2021/07/04 00:05:28;;;;;;;11.45;9.30;;;;;;;-146.52;100.00;63329.72;1006800;29;20021;-77
2021/07/04 00:05:59;;;;;;;13.60;9.80;;;;;;;-146.52;100.00;63329.72;1005256;29;20029;-85
2021/07/04 00:06:30;;;;;;;11.95;9.38;;;;;;;-146.52;100.00;63329.72;998260;29;20054;-85
2021/07/04 00:07:02;;;;;;;13.60;9.88;;;;;;;-146.52;100.00;63329.72;998217;29;20026;-84
2021/07/04 00:07:33;;;;;;;16.10;9.57;;;;;;;-146.52;100.00;63329.72;995187;29;20039;-87
2021/07/04 00:08:04;;;;;;;12.77;9.20;;;;;;;-146.52;100.00;63329.72;994620;29;20150;-86
2021/07/04 00:08:35;;;;;;;11.32;8.40;;;;;;;-146.52;100.00;63329.72;998743;29;20026;-86
2021/07/04 00:09:05;;;;;;;11.65;9.38;;;;;;;-146.52;100.00;63329.72;1000548;29;20113;-89
2021/07/04 00:09:37;;;;;;;12.95;9.32;;;;;;;-146.52;100.00;63329.72;1007760;29;20058;-89
2021/07/04 00:10:15;;;;;;;11.52;9.20;;;;;;;-146.52;100.00;63329.72;1009317;29;20032;-87
2021/07/04 00:10:51;;;;;;;12.13;8.90;;;;;;;-146.52;100.00;63329.72;1010795;29;20049;-87
2021/07/04 00:11:21;;;;;;;12.95;9.32;;;;;;;-146.52;100.00;63329.72;1009671;29;20016;-88
2021/07/04 00:11:52;;;;;;;14.45;9.73;;;;;;;-146.52;100.00;63329.72;1013340;29;20617;-88
2021/07/04 00:12:22;;;;;;;13.77;9.05;;;;;;;-146.52;100.00;63329.72;1005599;29;20025;-85
2021/07/04 00:12:53;;;;;;;10.20;8.52;;;;;;;-146.52;100.00;63329.72;1010991;29;20936;-87
2021/07/04 00:13:24;;;;;;;11.57;9.20;;;;;;;-146.52;100.00;63329.72;1005950;29;20006;-86
2021/07/04 00:13:55;;;;;;;11.30;9.18;;;;;;;-146.52;100.00;63329.72;1002083;29;20010;-87
2021/07/04 00:14:26;;;;;;;11.90;9.27;;;;;;;-146.52;100.00;63329.72;1009784;29;20017;-85
2021/07/04 00:14:56;;;;;;;11.20;9.13;;;;;;;-146.52;100.00;63329.72;1009790;29;20009;-87
2021/07/04 00:15:29;;;;;;;11.30;9.60;;;;;;;-146.52;100.00;63329.72;1005958;29;20112;-86
2021/07/04 00:16:01;;;;;;;12.55;9.02;;;;;;;-146.52;100.00;63329.72;1006958;29;20062;-88
2021/07/04 00:16:32;;;;;;;11.80;9.65;;;;;;;-146.52;100.00;63329.72;1001649;29;20056;-87
2021/07/04 00:17:03;;;;;;;11.57;8.57;;;;;;;-146.52;100.00;63329.72;1005097;29;20110;-89
2021/07/04 00:17:34;;;;;;;12.13;9.20;;;;;;;-146.52;100.00;63329.72;1004782;29;20021;-88
2021/07/04 00:18:10;;;;;;;10.73;9.00;;;;;;;-146.52;100.00;63329.72;999186;29;20029;-88
2021/07/04 00:18:41;;;;;;;12.55;10.68;;;;;;;-146.52;100.00;63329.72;1002180;29;20233;-86
2021/07/04 00:19:12;;;;;;;13.68;10.13;;;;;;;-146.52;100.00;63329.72;1006453;29;20420;-89
2021/07/04 00:19:42;;;;;;;11.57;9.43;;;;;;;-146.52;100.00;63329.72;1006293;29;20093;-85
2021/07/04 00:20:14;;;;;;;13.65;10.10;;;;;;;-146.52;100.00;63329.72;998511;29;20144;-86
2021/07/04 00:20:45;;;;;;;12.98;9.00;;;;;;;-146.52;100.00;63329.72;1002300;29;20029;-86
2021/07/04 00:21:15;;;;;;;11.82;9.20;;;;;;;-146.52;100.00;63329.72;1013004;29;20084;-87
2021/07/04 00:21:46;;;;;;;12.18;9.70;;;;;;;-146.52;100.00;63329.72;1010252;29;20176;-87
2021/07/04 00:22:17;;;;;;;14.75;10.20;;;;;;;-146.52;100.00;63329.72;998394;29;20109;-88
2021/07/04 00:22:47;;;;;;;14.15;10.35;;;;;;;-146.52;100.00;63329.72;1005816;29;20025;-88
2021/07/04 00:23:18;;;;;;;11.65;9.02;;;;;;;-146.52;100.00;63329.72;1009244;29;20025;-86
2021/07/04 00:23:49;;;;;;;14.38;10.52;;;;;;;-146.52;100.00;63329.72;999248;29;20030;-86
2021/07/04 00:24:19;;;;;;;12.18;9.90;;;;;;;-146.52;100.00;63329.72;1009879;29;20032;-87
2021/07/04 00:24:50;;;;;;;11.57;9.63;;;;;;;-146.52;100.00;63329.72;1013679;29;20021;-88
2021/07/04 00:25:22;;;;;;;13.43;10.15;;;;;;;-146.52;100.00;63329.72;994905;29;20057;-86
2021/07/04 00:25:52;;;;;;;12.73;10.77;;;;;;;-146.52;100.00;63329.72;1009370;29;20036;-88
2021/07/04 00:26:23;;;;;;;13.23;9.70;;;;;;;-146.52;100.00;63329.72;1005889;29;20006;-85
2021/07/04 00:26:54;;;;;;;13.10;9.75;;;;;;;-146.52;100.00;63329.72;1016993;29;20056;-84
2021/07/04 00:27:24;;;;;;;12.30;9.40;;;;;;;-146.52;100.00;63329.72;1009277;29;20030;-84
2021/07/04 00:27:55;;;;;;;17.33;9.98;;;;;;;-146.52;100.00;63329.72;1005120;29;20036;-84
2021/07/04 00:28:26;;;;;;;11.55;9.68;;;;;;;-146.52;100.00;63329.72;1012164;29;20054;-86
2021/07/04 00:28:57;;;;;;;12.27;9.38;;;;;;;-146.52;100.00;63329.72;1001153;29;20029;-86
2021/07/04 00:29:27;;;;;;;11.50;9.80;;;;;;;-146.52;100.00;63329.72;1005116;29;20018;-84
2021/07/04 00:29:58;;;;;;;12.23;10.50;;;;;;;-146.52;100.00;63329.72;1001586;29;20030;-84
2021/07/04 00:30:28;;;;;;;12.45;10.13;;;;;;;-146.52;100.00;63329.72;1004930;29;20018;-85
2021/07/04 00:30:59;;;;;;;12.02;9.75;;;;;;;-146.52;100.00;63329.72;1004878;29;20155;-84
2021/07/04 00:31:30;;;;;;;14.77;10.27;;;;;;;-146.52;100.00;63329.72;1005176;29;20053;-84
2021/07/04 00:32:01;;;;;;;13.48;10.32;;;;;;;-146.52;100.00;63329.72;1005220;29;20278;-84
2021/07/04 00:32:32;;;;;;;15.02;10.85;;;;;;;-146.52;100.00;63329.72;1005230;29;20028;-83
2021/07/04 00:33:03;;;;;;;11.27;9.25;;;;;;;-146.52;100.00;63329.72;1005309;29;20018;-82
2021/07/04 00:33:33;;;;;;;14.35;9.90;;;;;;;-146.52;100.00;63329.72;999367;29;20091;-83
2021/07/04 00:34:04;;;;;;;12.48;9.98;;;;;;;-146.52;100.00;63329.72;1015074;29;20583;-83
2021/07/04 00:34:35;;;;;;;14.52;10.15;;;;;;;-146.52;100.00;63329.72;1010504;29;20113;-82
2021/07/04 00:35:11;;;;;;;14.30;10.32;;;;;;;-146.52;100.00;63329.72;1007068;29;20090;-82
2021/07/04 00:35:47;;;;;;;14.43;9.75;;;;;;;-146.52;100.00;63329.72;1003326;29;20068;-82
2021/07/04 00:36:20;;;;;;;14.05;11.00;;;;;;;-146.52;100.00;63329.72;1003005;29;20028;-82
2021/07/04 00:36:52;;;;;;;12.43;10.00;;;;;;;-146.52;100.00;63329.72;1003178;29;20026;-82
2021/07/04 00:37:24;;;;;;;11.57;9.80;;;;;;;-146.52;100.00;63329.72;1006660;29;20040;-81
2021/07/04 00:37:56;;;;;;;12.18;9.85;;;;;;;-146.52;100.00;63329.72;999919;29;20072;-82
2021/07/04 00:38:27;;;;;;;14.00;10.00;;;;;;;-146.52;100.00;63329.72;1003451;29;20030;-83
2021/07/04 00:38:58;;;;;;;15.20;11.48;;;;;;;-146.52;100.00;63329.72;1007875;29;20037;-82
2021/07/04 00:39:30;;;;;;;13.48;10.65;;;;;;;-146.52;100.00;63329.72;1007272;29;20396;-83
2021/07/04 00:40:01;;;;;;;13.45;10.35;;;;;;;-146.52;100.00;63329.72;1011157;29;20017;-83
2021/07/04 00:40:32;;;;;;;13.30;10.52;;;;;;;-146.52;100.00;63329.72;1010806;29;20029;-83
2021/07/04 00:41:03;;;;;;;11.35;9.73;;;;;;;-146.52;100.00;63329.72;1002733;29;20026;-84
2021/07/04 00:41:33;;;;;;;11.68;10.10;;;;;;;-146.52;100.00;63329.72;1006980;29;20025;-84
2021/07/04 00:42:04;;;;;;;12.23;9.75;;;;;;;-146.52;100.00;63329.72;1010943;29;20033;-85
2021/07/04 00:42:35;;;;;;;12.10;9.50;;;;;;;-146.52;100.00;63329.72;1012646;29;20037;-85
2021/07/04 00:43:06;;;;;;;14.15;10.90;;;;;;;-146.52;100.00;63329.72;1005247;29;20524;-84
2021/07/04 00:43:37;;;;;;;14.27;10.38;;;;;;;-146.52;100.00;63329.72;1009225;29;20037;-85
2021/07/04 00:44:07;;;;;;;14.93;10.13;;;;;;;-146.52;100.00;63329.72;1005664;29;20117;-84
2021/07/04 00:44:38;;;;;;;12.57;9.52;;;;;;;-146.52;100.00;63329.72;1001668;29;20026;-85
2021/07/04 00:45:14;;;;;;;14.50;10.13;;;;;;;-146.52;100.00;63329.72;1005601;29;20116;-83
2021/07/04 00:45:44;;;;;;;12.88;9.93;;;;;;;-146.52;100.00;63329.72;1008953;29;20064;-85
2021/07/04 00:46:15;;;;;;;12.55;10.50;;;;;;;-146.52;100.00;63329.72;998335;29;20030;-84
2021/07/04 00:46:46;;;;;;;14.40;10.07;;;;;;;-146.52;100.00;63329.72;1001870;29;20079;-85
2021/07/04 00:47:16;;;;;;;17.35;10.68;;;;;;;-146.52;100.00;63329.72;994242;29;20030;-83
2021/07/04 00:47:47;;;;;;;13.55;10.25;;;;;;;-146.52;100.00;63329.72;1002136;29;20041;-83
2021/07/04 00:48:18;;;;;;;14.25;9.85;;;;;;;-146.52;100.00;63329.72;1003339;29;20034;-82
2021/07/04 00:48:49;;;;;;;12.82;10.40;;;;;;;-146.52;100.00;63329.72;1004731;29;20045;-82
2021/07/04 00:49:19;;;;;;;13.30;9.98;;;;;;;-146.52;100.00;63329.72;1011353;29;20036;-83
2021/07/04 00:49:50;;;;;;;14.95;10.20;;;;;;;-146.52;100.00;63329.72;1007951;29;20108;-82
2021/07/04 00:50:23;;;;;;;15.75;10.88;;;;;;;-146.52;100.00;63329.72;999997;29;20027;-81
2021/07/04 00:50:53;;;;;;;14.98;11.35;;;;;;;-146.52;100.00;63329.72;1003146;29;20040;-82
2021/07/04 00:51:24;;;;;;;12.13;10.55;;;;;;;-146.52;100.00;63329.72;1005012;29;20044;-82
2021/07/04 00:51:55;;;;;;;12.63;10.57;;;;;;;-146.52;100.00;63329.72;1006878;29;20034;-83
2021/07/04 00:52:26;;;;;;;14.82;10.43;;;;;;;-146.52;100.00;63329.72;1007920;29;20029;-84
2021/07/04 00:52:57;;;;;;;13.82;10.07;;;;;;;-146.52;100.00;63329.72;1000059;29;20101;-85
2021/07/04 00:53:28;;;;;;;13.32;10.07;;;;;;;-146.52;100.00;63329.72;998823;29;20069;-83
2021/07/04 00:53:59;;;;;;;15.10;9.93;;;;;;;-146.52;100.00;63329.72;1001981;29;20137;-85
2021/07/04 00:54:29;;;;;;;12.85;9.75;;;;;;;-146.52;100.00;63329.72;1002358;29;20040;-86
2021/07/04 00:55:00;;;;;;;12.98;10.05;;;;;;;-146.52;100.00;63329.72;1005778;29;20053;-85
2021/07/04 00:55:31;;;;;;;13.27;10.18;;;;;;;-146.52;100.00;63329.72;1005635;29;20025;-83
2021/07/04 00:56:01;;;;;;;13.30;9.95;;;;;;;-146.52;100.00;63329.72;1006363;29;20033;-83
2021/07/04 00:56:32;;;;;;;14.10;9.10;;;;;;;-146.52;100.00;63329.72;1006856;29;20025;-85
2021/07/04 00:57:03;;;;;;;11.95;9.68;;;;;;;-146.52;100.00;63329.72;1006839;29;20029;-85
2021/07/04 00:57:34;;;;;;;11.05;8.52;;;;;;;-146.52;100.00;63329.72;1018286;29;20084;-85
2021/07/04 00:58:05;;;;;;;11.38;9.57;;;;;;;-146.52;100.00;63329.72;1002611;29;20082;-84
2021/07/04 00:58:35;;;;;;;13.73;10.05;;;;;;;-146.52;100.00;63329.72;1010038;29;20033;-86
2021/07/04 00:59:06;;;;;;;10.77;9.13;;;;;;;-146.52;100.00;63329.72;1007557;29;20131;-83
2021/07/04 00:59:36;;;;;;;11.65;8.80;;;;;;;-146.52;100.00;63329.72;1008002;29;20021;-83
2021/07/04 01:00:09;;;;;;;12.63;9.88;;;;;;;-146.52;100.00;63329.72;1004442;29;20026;-82
2021/07/04 01:00:41;;;;;;;13.93;9.50;;;;;;;-146.52;100.00;63329.72;996841;29;20065;-82
2021/07/04 01:01:11;;;;;;;11.57;8.82;;;;;;;-146.52;100.00;63329.72;1012122;29;20025;-82
2021/07/04 01:01:42;;;;;;;11.98;9.55;;;;;;;-146.52;100.00;63329.72;1007984;29;20035;-85
2021/07/04 01:02:13;;;;;;;11.68;9.82;;;;;;;-146.52;100.00;63329.72;1003562;29;20022;-86
2021/07/04 01:02:45;;;;;;;11.38;9.05;;;;;;;-146.52;100.00;63329.72;1003847;29;20029;-82
2021/07/04 01:03:16;;;;;;;13.25;8.55;;;;;;;-146.52;100.00;63329.72;1007314;29;20036;-82
2021/07/04 01:03:47;;;;;;;11.02;8.40;;;;;;;-146.52;100.00;63329.72;1011781;29;20048;-82
2021/07/04 01:04:17;;;;;;;10.38;8.20;;;;;;;-146.52;100.00;63329.72;1004425;29;20026;-82
2021/07/04 01:04:50;;;;;;;9.63;8.25;;;;;;;-146.52;100.00;63329.72;1012182;29;20124;-82
2021/07/04 01:05:26;;;;;;;13.20;8.45;;;;;;;-146.52;100.00;63329.72;1004344;29;20468;-82
2021/07/04 01:06:00;;;;;;;13.00;9.80;;;;;;;-146.52;100.00;63329.72;1004668;29;20029;-82
2021/07/04 01:06:35;;;;;;;11.10;8.73;;;;;;;-146.52;100.00;63329.72;1008042;29;20022;-81
2021/07/04 01:07:09;;;;;;;12.52;9.10;;;;;;;-146.52;100.00;63329.72;1007864;29;20049;-82
2021/07/04 01:07:41;;;;;;;11.55;8.32;;;;;;;-146.52;100.00;63329.72;1011694;29;20053;-82
2021/07/04 01:08:12;;;;;;;12.50;9.05;;;;;;;-146.52;100.00;63329.72;1007717;29;20048;-83
2021/07/04 01:08:43;;;;;;;11.02;8.88;;;;;;;-146.52;100.00;63329.72;999941;29;20014;-83
2021/07/04 01:09:15;;;;;;;10.68;8.90;;;;;;;-146.52;100.00;63329.72;1007974;29;20033;-82
2021/07/04 01:09:46;;;;;;;11.02;8.57;;;;;;;-146.52;100.00;63329.72;999612;29;20015;-83
2021/07/04 01:10:21;;;;;;;12.32;8.77;;;;;;;-146.52;100.00;63329.72;1003163;29;20078;-83
2021/07/04 01:10:52;;;;;;;11.90;9.23;;;;;;;-146.52;100.00;63329.72;999490;29;20488;-83
2021/07/04 01:11:23;;;;;;;11.10;9.15;;;;;;;-146.52;100.00;63329.72;1003547;29;20030;-82
2021/07/04 01:11:55;;;;;;;13.05;9.55;;;;;;;-146.52;100.00;63329.72;1003533;29;20022;-82
2021/07/04 01:12:28;;;;;;;12.30;9.95;;;;;;;-146.52;100.00;63329.72;1003531;29;20017;-81
2021/07/04 01:13:01;;;;;;;14.02;10.10;;;;;;;-146.52;100.00;63329.72;1007219;29;20090;-83
2021/07/04 01:13:34;;;;;;;13.70;10.43;;;;;;;-146.52;100.00;63329.72;1007355;29;20014;-82
2021/07/04 01:14:06;;;;;;;13.48;10.52;;;;;;;-146.52;100.00;63329.72;998914;29;20038;-81
2021/07/04 01:14:38;;;;;;;11.73;9.18;;;;;;;-146.52;100.00;63329.72;1014487;29;20017;-82
2021/07/04 01:15:11;;;;;;;12.07;9.30;;;;;;;-146.52;100.00;63329.72;1002957;29;20029;-82
2021/07/04 01:15:43;;;;;;;11.73;9.20;;;;;;;-146.52;100.00;63329.72;995086;29;20023;-81
2021/07/04 01:16:14;;;;;;;12.57;9.98;;;;;;;-146.52;100.00;63329.72;1002835;29;20032;-82
2021/07/04 01:16:45;;;;;;;12.95;9.90;;;;;;;-146.52;100.00;63329.72;1003158;29;20528;-83
2021/07/04 01:17:16;;;;;;;12.70;10.13;;;;;;;-146.52;100.00;63329.72;1003083;29;20026;-82
2021/07/04 01:17:47;;;;;;;13.82;9.18;;;;;;;-146.52;100.00;63329.72;1007026;29;20113;-82
2021/07/04 01:18:18;;;;;;;13.35;9.50;;;;;;;-146.52;100.00;63329.72;1002959;29;20055;-84
2021/07/04 01:18:48;;;;;;;12.18;9.60;;;;;;;-146.52;100.00;63329.72;1002136;29;20073;-82
2021/07/04 01:19:19;;;;;;;13.80;9.70;;;;;;;-146.52;100.00;63329.72;997969;29;20309;-84
2021/07/04 01:19:50;;;;;;;11.05;8.98;;;;;;;-146.52;100.00;63329.72;1001691;29;20026;-85
2021/07/04 01:20:21;;;;;;;13.68;9.30;;;;;;;-146.52;100.00;63329.72;998174;29;20136;-86
2021/07/04 01:20:52;;;;;;;10.98;9.73;;;;;;;-146.52;100.00;63329.72;1001786;29;20045;-85
2021/07/04 01:21:22;;;;;;;13.20;10.23;;;;;;;-146.52;100.00;63329.72;1002057;29;20018;-84
2021/07/04 01:21:56;;;;;;;14.20;9.73;;;;;;;-146.52;100.00;63329.72;997802;29;20130;-85
2021/07/04 01:22:30;;;;;;;11.38;9.40;;;;;;;-146.52;100.00;63329.72;998086;29;20046;-84
2021/07/04 01:23:02;;;;;;;11.73;9.63;;;;;;;-146.52;100.00;63329.72;998859;29;20118;-84
2021/07/04 01:23:33;;;;;;;12.80;9.60;;;;;;;-146.52;100.00;63329.72;994163;29;20031;-84
2021/07/04 01:24:04;;;;;;;12.77;9.82;;;;;;;-146.52;100.00;63329.72;995332;29;20121;-83
2021/07/04 01:24:34;;;;;;;11.05;8.93;;;;;;;-146.52;100.00;63329.72;1009391;29;20024;-82
2021/07/04 01:25:09;;;;;;;11.80;9.20;;;;;;;-146.52;100.00;63329.72;1001942;29;20188;-82
2021/07/04 01:25:44;;;;;;;11.07;9.52;;;;;;;-146.52;100.00;63329.72;1001739;29;20481;-83
2021/07/04 01:26:15;;;;;;;10.48;8.52;;;;;;;-146.52;100.00;63329.72;998240;29;20054;-83
2021/07/04 01:26:45;;;;;;;11.57;8.52;;;;;;;-146.52;100.00;63329.72;1002038;29;20033;-84
2021/07/04 01:27:16;;;;;;;12.00;8.85;;;;;;;-146.52;100.00;63329.72;1004483;29;20427;-84
2021/07/04 01:27:49;;;;;;;11.13;9.27;;;;;;;-146.52;100.00;63329.72;998091;29;20064;-86
2021/07/04 01:28:20;;;;;;;11.48;9.45;;;;;;;-146.52;100.00;63329.72;1005146;29;20025;-83
2021/07/04 01:28:51;;;;;;;11.30;9.32;;;;;;;-146.52;100.00;63329.72;994994;29;20023;-83
2021/07/04 01:29:21;;;;;;;12.18;8.55;;;;;;;-146.52;100.00;63329.72;1005231;29;20017;-82
2021/07/04 01:29:52;;;;;;;12.27;8.73;;;;;;;-146.52;100.00;63329.72;998162;29;20019;-82
2021/07/04 01:30:23;;;;;;;10.80;8.82;;;;;;;-146.52;100.00;63329.72;1001662;29;20022;-85
2021/07/04 01:30:55;;;;;;;13.25;9.60;;;;;;;-146.52;100.00;63329.72;997946;29;20389;-83
2021/07/04 01:31:26;;;;;;;15.10;12.93;;;;;;;-146.52;100.00;63329.72;1001821;29;20546;-86
2021/07/04 01:31:56;;;;;;;13.70;9.98;;;;;;;-146.52;100.00;63329.72;1002245;29;20135;-84
2021/07/04 01:32:27;;;;;;;12.32;10.23;;;;;;;-146.52;100.00;63329.72;1002114;29;20089;-87
2021/07/04 01:32:57;;;;;;;13.40;11.63;;;;;;;-146.52;100.00;63329.72;1005640;29;20108;-85
2021/07/04 01:33:28;;;;;;;10.90;8.95;;;;;;;-146.52;100.00;63329.72;1005783;29;20021;-86
2021/07/04 01:33:59;;;;;;;11.10;8.07;;;;;;;-146.52;100.00;63329.72;1009621;29;20459;-86
2021/07/04 01:34:30;;;;;;;12.75;7.78;;;;;;;-146.52;100.00;63329.72;1002071;29;20567;-84
2021/07/04 01:35:00;;;;;;;11.23;8.50;;;;;;;-146.52;100.00;63329.72;1006353;29;20375;-83
2021/07/04 01:35:31;;;;;;;9.23;7.75;;;;;;;-146.52;100.00;63329.72;999114;29;20018;-85
2021/07/04 01:36:02;;;;;;;10.77;8.30;;;;;;;-146.52;100.00;63329.72;1003240;29;20033;-82
2021/07/04 01:36:34;;;;;;;9.65;7.90;;;;;;;-146.52;100.00;63329.72;1003423;29;20034;-84
2021/07/04 01:37:05;;;;;;;9.52;7.65;;;;;;;-146.52;100.00;63329.72;1009413;29;20027;-82
2021/07/04 01:37:35;;;;;;;10.02;7.60;;;;;;;-146.52;100.00;63329.72;1010898;29;20028;-82
2021/07/04 01:38:06;;;;;;;8.80;7.18;;;;;;;-146.52;100.00;63329.72;1003491;29;20022;-84
2021/07/04 01:38:38;;;;;;;8.63;6.80;;;;;;;-146.52;100.00;63329.72;1003279;29;20040;-83
2021/07/04 01:39:08;;;;;;;10.18;7.78;;;;;;;-146.52;100.00;63329.72;1000168;29;20022;-82
2021/07/04 01:39:39;;;;;;;10.70;8.25;;;;;;;-146.52;100.00;63329.72;1003674;29;20025;-81
2021/07/04 01:40:12;;;;;;;9.70;7.82;;;;;;;-146.52;100.00;63329.72;1003688;29;20029;-81
2021/07/04 01:40:43;;;;;;;9.75;8.13;;;;;;;-146.52;100.00;63329.72;1006602;29;20033;-81
2021/07/04 01:41:18;;;;;;;9.93;7.50;;;;;;;-146.52;100.00;63329.72;1003464;29;20028;-82
2021/07/04 01:41:53;;;;;;;10.82;8.00;;;;;;;-146.52;100.00;63329.72;1002588;29;20462;-82
2021/07/04 01:42:27;;;;;;;10.45;8.15;;;;;;;-146.52;100.00;63329.72;995511;29;20034;-82
2021/07/04 01:42:59;;;;;;;10.20;8.20;;;;;;;-146.52;100.00;63329.72;1006621;29;20049;-82
2021/07/04 01:43:30;;;;;;;8.93;7.38;;;;;;;-146.52;100.00;63329.72;1006870;29;20036;-82
2021/07/04 01:44:02;;;;;;;10.73;8.45;;;;;;;-146.52;100.00;63329.72;996525;29;20022;-82
2021/07/04 01:44:33;;;;;;;11.80;8.15;;;;;;;-146.52;100.00;63329.72;1007430;29;20025;-82
2021/07/04 01:45:07;;;;;;;11.23;8.68;;;;;;;-146.52;100.00;63329.72;999562;29;20059;-82
2021/07/04 01:45:39;;;;;;;9.70;7.88;;;;;;;-146.52;100.00;63329.72;1011705;29;20021;-81
2021/07/04 01:46:12;;;;;;;9.68;7.65;;;;;;;-146.52;100.00;63329.72;999953;29;20026;-81
2021/07/04 01:46:46;;;;;;;8.93;7.82;;;;;;;-146.52;100.00;63329.72;1007071;29;20057;-82
2021/07/04 01:47:32;;;;;;;9.18;7.30;;;;;;;-146.52;100.00;63329.72;1011207;29;20400;-82
2021/07/04 01:48:33;;;;;;;9.35;7.10;;;;;;;-146.52;100.00;63329.72;1003549;29;20505;-82
2021/07/04 01:49:10;;;;;;;12.65;7.35;;;;;;;-146.52;100.00;63329.72;1003158;29;20071;-82
2021/07/04 01:49:43;;;;;;;8.82;6.65;;;;;;;-146.52;100.00;63329.72;1009012;29;20067;-82
2021/07/04 01:50:28;;;;;;;10.88;7.68;;;;;;;-146.52;100.00;63329.72;1007516;29;20033;-82
2021/07/04 01:51:00;;;;;;;9.30;7.10;;;;;;;-146.52;100.00;63329.72;1003241;29;20029;-82
2021/07/04 01:51:33;;;;;;;8.48;6.63;;;;;;;-146.52;100.00;63329.72;999964;29;20033;-82
2021/07/04 01:52:06;;;;;;;8.60;7.53;;;;;;;-146.52;100.00;63329.72;1002861;29;20029;-81
2021/07/04 01:52:38;;;;;;;8.60;6.50;;;;;;;-146.52;100.00;63329.72;1011174;29;20029;-81
2021/07/04 01:53:09;;;;;;;9.38;7.15;;;;;;;-146.52;100.00;63329.72;992569;29;20030;-82
2021/07/04 01:53:40;;;;;;;8.65;6.82;;;;;;;-146.52;100.00;63329.72;1011919;29;20031;-82
2021/07/04 01:54:11;;;;;;;8.52;7.00;;;;;;;-146.52;100.00;63329.72;996905;29;20034;-82
2021/07/04 01:54:42;;;;;;;8.70;6.70;;;;;;;-146.52;100.00;63329.72;1001726;29;20022;-82
2021/07/04 01:55:13;;;;;;;9.63;7.28;;;;;;;-146.52;100.00;63329.72;1002030;29;20019;-83
2021/07/04 01:55:44;;;;;;;8.02;6.63;;;;;;;-146.52;100.00;63329.72;1001959;29;20029;-84
2021/07/04 01:56:15;;;;;;;7.72;6.65;;;;;;;-146.52;100.00;63329.72;998374;29;20025;-84
2021/07/04 01:56:46;;;;;;;12.00;7.93;;;;;;;-146.52;100.00;63329.72;997789;29;20015;-81
2021/07/04 01:57:16;;;;;;;9.20;6.97;;;;;;;-146.52;100.00;63329.72;1001215;29;20018;-82
2021/07/04 01:57:48;;;;;;;8.05;6.43;;;;;;;-146.52;100.00;63329.72;1000781;29;20026;-82
2021/07/04 01:58:19;;;;;;;8.68;6.47;;;;;;;-146.52;100.00;63329.72;1004835;29;20032;-84
2021/07/04 01:58:50;;;;;;;7.85;6.05;;;;;;;-146.52;100.00;63329.72;1004635;29;20032;-84
2021/07/04 01:59:20;;;;;;;9.65;6.70;;;;;;;-146.52;100.00;63329.72;997018;29;20497;-82
2021/07/04 01:59:53;;;;;;;8.60;6.47;;;;;;;-146.52;100.00;63329.72;1008535;29;20096;-83
2021/07/04 02:00:26;;;;;;;8.63;6.93;;;;;;;-146.52;100.00;63329.72;1000653;29;20382;-83
2021/07/04 02:00:57;;;;;;;9.73;7.20;;;;;;;-146.52;100.00;63329.72;1004496;29;20022;-83
2021/07/04 02:01:27;;;;;;;13.85;7.65;;;;;;;-146.52;100.00;63329.72;1001065;29;20094;-82
2021/07/04 02:01:58;;;;;;;9.48;6.60;;;;;;;-146.52;100.00;63329.72;1007404;29;20030;-85
2021/07/04 02:02:28;;;;;;;9.57;6.95;;;;;;;-146.52;100.00;63329.72;998943;29;20113;-83
2021/07/04 02:03:00;;;;;;;8.93;7.60;;;;;;;-146.52;100.00;63329.72;1002837;29;20101;-85
2021/07/04 02:03:30;;;;;;;9.00;7.28;;;;;;;-146.52;100.00;63329.72;1014412;29;20024;-83
2021/07/04 02:04:01;;;;;;;10.90;7.35;;;;;;;-146.52;100.00;63329.72;1003613;29;20070;-84
2021/07/04 02:04:37;;;;;;;9.48;7.43;;;;;;;-146.52;100.00;63329.72;995752;29;20098;-83
2021/07/04 02:05:08;;;;;;;10.32;7.65;;;;;;;-146.52;100.00;63329.72;1003147;29;20093;-83
2021/07/04 02:05:39;;;;;;;9.98;7.50;;;;;;;-146.52;100.00;63329.72;995090;29;20171;-84
2021/07/04 02:06:09;;;;;;;8.63;7.13;;;;;;;-146.52;100.00;63329.72;998013;29;20033;-85
2021/07/04 02:06:41;;;;;;;9.27;7.45;;;;;;;-146.52;100.00;63329.72;998545;29;20118;-85
2021/07/04 02:07:15;;;;;;;10.18;7.00;;;;;;;-146.52;100.00;63329.72;994142;29;20023;-84
2021/07/04 02:07:46;;;;;;;8.93;7.38;;;;;;;-146.52;100.00;63329.72;994217;29;20022;-83
2021/07/04 02:08:17;;;;;;;10.45;8.07;;;;;;;-146.52;100.00;63329.72;1001695;29;20098;-84
2021/07/04 02:08:47;;;;;;;10.35;7.65;;;;;;;-146.52;100.00;63329.72;997558;29;20036;-83
2021/07/04 02:09:18;;;;;;;10.50;7.80;;;;;;;-146.52;100.00;63329.72;997644;29;20458;-85
2021/07/04 02:09:49;;;;;;;9.38;7.47;;;;;;;-146.52;100.00;63329.72;997869;29;20228;-84
2021/07/04 02:10:25;;;;;;;10.27;7.93;;;;;;;-146.52;100.00;63329.72;994031;29;20065;-82
2021/07/04 02:10:55;;;;;;;10.63;7.45;;;;;;;-146.52;100.00;63329.72;997858;29;20019;-83
2021/07/04 02:11:26;;;;;;;9.82;7.43;;;;;;;-146.52;100.00;63329.72;1001675;29;20026;-83
2021/07/04 02:11:57;;;;;;;9.65;7.07;;;;;;;-146.52;100.00;63329.72;1002003;29;20093;-82
2021/07/04 02:12:28;;;;;;;9.85;7.65;;;;;;;-146.52;100.00;63329.72;1000952;29;20568;-84
2021/07/04 02:12:59;;;;;;;9.35;7.35;;;;;;;-146.52;100.00;63329.72;1006915;29;20050;-82
2021/07/04 02:13:30;;;;;;;10.50;7.90;;;;;;;-146.52;100.00;63329.72;1003538;29;20029;-83
2021/07/04 02:14:00;;;;;;;10.38;8.00;;;;;;;-146.52;100.00;63329.72;1003548;29;20028;-82
2021/07/04 02:14:31;;;;;;;9.98;8.25;;;;;;;-146.52;100.00;63329.72;1007262;29;20032;-83
2021/07/04 02:15:08;;;;;;;9.73;8.07;;;;;;;-146.52;100.00;63329.72;999173;29;20108;-81
2021/07/04 02:15:39;;;;;;;9.32;7.53;;;;;;;-146.52;100.00;63329.72;1006925;29;20029;-81
2021/07/04 02:16:10;;;;;;;10.23;7.93;;;;;;;-146.52;100.00;63329.72;998116;29;20022;-81
2021/07/04 02:16:41;;;;;;;9.85;7.95;;;;;;;-146.52;100.00;63329.72;1003064;29;20085;-84
2021/07/04 02:17:12;;;;;;;9.23;7.68;;;;;;;-146.52;100.00;63329.72;1003023;29;20033;-83
2021/07/04 02:17:43;;;;;;;11.63;8.43;;;;;;;-146.52;100.00;63329.72;1010550;29;20112;-82
2021/07/04 02:18:16;;;;;;;11.23;7.93;;;;;;;-146.52;100.00;63329.72;1003396;29;20046;-83
2021/07/04 02:18:50;;;;;;;12.93;8.40;;;;;;;-146.52;100.00;63329.72;993580;29;20482;-82
2021/07/04 02:19:20;;;;;;;10.07;7.88;;;;;;;-146.52;100.00;63329.72;996043;29;20027;-83
2021/07/04 02:19:52;;;;;;;10.38;8.25;;;;;;;-146.52;100.00;63329.72;1002780;29;20026;-82
2021/07/04 02:20:39;;;;;;;11.35;8.30;;;;;;;-146.52;100.00;63329.72;994796;29;20038;-84
2021/07/04 02:21:10;;;;;;;10.38;8.25;;;;;;;-146.52;100.00;63329.72;998638;29;20554;-83
2021/07/04 02:21:41;;;;;;;9.40;7.88;;;;;;;-146.52;100.00;63329.72;1009284;29;20076;-86
2021/07/04 02:22:12;;;;;;;10.65;7.97;;;;;;;-146.52;100.00;63329.72;994204;29;20023;-85
2021/07/04 02:22:42;;;;;;;12.68;9.13;;;;;;;-146.52;100.00;63329.72;1001523;29;20082;-83
2021/07/04 02:23:20;;;;;;;12.23;8.50;;;;;;;-146.52;100.00;63329.72;1001363;29;20033;-82